Time;durP1;ratioP1;P1;durP2;ratioP2;P2;SDS_P1;SDS_P2;PMS_P1;PMS_P2;Temp;Humidity;BMP_temperature;BMP_pressure;BME280_temperature;BME280_humidity;BME280_pressure;Samples;Min_cycle;Max_cycle;Signal;HPM_P1;HPM_P2
2023/09/01 00:00:47;;;;;;;4.55;1.90;;;;;;;;;;5015546;28;20305;-62
2023/09/01 00:03:16;;;;;;;4.75;2.00;;;;;;;;;;5018284;28;20049;-63
2023/09/01 00:05:45;;;;;;;2.33;1.42;;;;;;;;;;5014065;28;20053;-68
2023/09/01 00:08:14;;;;;;;3.35;1.50;;;;;;;;;;5015394;28;20550;-66
2023/09/01 00:10:42;;;;;;;6.07;1.75;;;;;;;;;;5011939;28;20053;-61
2023/09/01 00:13:11;;;;;;;5.70;1.52;;;;;;;;;;5016064;28;20475;-62
2023/09/01 00:15:41;;;;;;;4.60;1.58;;;;;;;;;;5021656;28;20042;-63
2023/09/01 00:18:09;;;;;;;4.65;2.13;;;;;;;;;;5025359;28;20087;-61
2023/09/01 00:20:37;;;;;;;2.92;1.63;;;;;;;;;;5022787;28;20131;-62
2023/09/01 00:23:06;;;;;;;2.95;1.77;;;;;;;;;;5024266;28;20112;-62
2023/09/01 00:25:34;;;;;;;2.92;1.55;;;;;;;;;;5023973;28;20439;-63
2023/09/01 00:28:02;;;;;;;4.43;1.77;;;;;;;;;;5022049;28;20050;-61
2023/09/01 00:30:31;;;;;;;5.00;1.92;;;;;;;;;;5023695;28;20480;-68
2023/09/01 00:33:01;;;;;;;4.20;1.88;;;;;;;;;;5022083;28;20064;-65
2023/09/01 00:35:29;;;;;;;4.28;1.85;;;;;;;;;;5020345;28;20045;-67
2023/09/01 00:37:57;;;;;;;4.22;1.90;;;;;;;;;;5021798;28;20046;-65
2023/09/01 00:40:26;;;;;;;3.65;2.00;;;;;;;;;;5024626;28;20486;-62
2023/09/01 00:42:54;;;;;;;3.30;1.80;;;;;;;;;;5024370;28;20505;-70
2023/09/01 00:45:23;;;;;;;3.00;1.70;;;;;;;;;;5021670;28;20341;-60
2023/09/01 00:47:51;;;;;;;3.67;2.22;;;;;;;;;;5022623;28;20490;-62
2023/09/01 00:50:21;;;;;;;5.45;2.30;;;;;;;;;;5014205;28;20045;-64
2023/09/01 00:52:50;;;;;;;3.60;2.05;;;;;;;;;;5004422;28;20077;-61
2023/09/01 00:55:18;;;;;;;3.92;1.80;;;;;;;;;;5004799;28;20053;-65
2023/09/01 00:57:47;;;;;;;7.00;2.13;;;;;;;;;;5004845;28;20046;-64
2023/09/01 01:00:18;;;;;;;3.42;1.50;;;;;;;;;;5010415;28;20060;-64
2023/09/01 01:02:46;;;;;;;5.15;2.30;;;;;;;;;;5018501;28;20572;-63
2023/09/01 01:05:15;;;;;;;3.65;1.92;;;;;;;;;;5012292;28;20434;-64
2023/09/01 01:07:47;;;;;;;4.30;1.88;;;;;;;;;;5014891;28;20077;-61
2023/09/01 01:10:19;;;;;;;5.30;2.83;;;;;;;;;;5014618;28;20127;-65
2023/09/01 01:12:50;;;;;;;4.22;2.00;;;;;;;;;;5015204;28;20518;-63
2023/09/01 01:15:22;;;;;;;3.67;1.90;;;;;;;;;;5015934;28;21833;-61
2023/09/01 01:17:51;;;;;;;3.33;1.90;;;;;;;;;;5017001;28;20052;-61
2023/09/01 01:20:27;;;;;;;4.53;2.20;;;;;;;;;;5012294;28;20443;-67
2023/09/01 01:23:11;;;;;;;3.97;2.30;;;;;;;;;;5005770;28;20069;-60
2023/09/01 01:25:45;;;;;;;3.08;1.80;;;;;;;;;;5008367;28;20050;-62
2023/09/01 01:28:14;;;;;;;4.78;2.35;;;;;;;;;;5008679;28;20096;-60
2023/09/01 01:30:43;;;;;;;6.07;2.22;;;;;;;;;;5010503;28;20052;-60
2023/09/01 01:33:16;;;;;;;4.20;2.08;;;;;;;;;;5007091;28;21196;-66
2023/09/01 01:35:50;;;;;;;4.63;1.95;;;;;;;;;;5004737;28;20085;-68
2023/09/01 01:38:19;;;;;;;5.18;2.47;;;;;;;;;;5008628;28;20045;-60
2023/09/01 01:40:51;;;;;;;3.55;1.77;;;;;;;;;;5006109;28;20045;-60
2023/09/01 01:43:23;;;;;;;3.97;2.10;;;;;;;;;;5013968;28;20045;-62
2023/09/01 01:45:51;;;;;;;4.97;2.03;;;;;;;;;;5015205;28;20057;-61
2023/09/01 01:48:20;;;;;;;6.63;2.22;;;;;;;;;;5010609;28;20053;-65
2023/09/01 01:50:48;;;;;;;3.30;1.83;;;;;;;;;;5006030;28;20077;-64
2023/09/01 01:53:16;;;;;;;4.75;2.10;;;;;;;;;;5006992;28;20060;-60
2023/09/01 01:55:45;;;;;;;2.88;1.70;;;;;;;;;;5009886;28;20050;-61
2023/09/01 01:58:14;;;;;;;5.47;2.08;;;;;;;;;;5010618;28;20045;-62
2023/09/01 02:00:43;;;;;;;3.25;1.90;;;;;;;;;;5008690;28;20042;-70
2023/09/01 02:03:11;;;;;;;6.55;2.30;;;;;;;;;;5013605;28;20050;-64
2023/09/01 02:05:40;;;;;;;3.28;2.00;;;;;;;;;;5011471;28;20108;-61
2023/09/01 02:08:08;;;;;;;4.70;2.20;;;;;;;;;;5010398;28;20046;-62
2023/09/01 02:10:36;;;;;;;4.32;2.05;;;;;;;;;;5012725;28;20050;-62
2023/09/01 02:13:05;;;;;;;5.00;1.85;;;;;;;;;;5019229;28;20131;-62
2023/09/01 02:15:35;;;;;;;3.50;2.20;;;;;;;;;;5009607;28;20101;-60
2023/09/01 02:18:03;;;;;;;4.50;1.88;;;;;;;;;;5007925;28;20046;-61
2023/09/01 02:20:36;;;;;;;3.15;1.85;;;;;;;;;;5020322;28;20061;-63
2023/09/01 02:23:05;;;;;;;3.60;1.85;;;;;;;;;;5027392;28;20206;-61
2023/09/01 02:25:37;;;;;;;8.20;2.42;;;;;;;;;;5025267;28;20049;-64
2023/09/01 02:28:06;;;;;;;3.33;1.92;;;;;;;;;;5024556;28;20107;-61
2023/09/01 02:30:36;;;;;;;4.68;2.35;;;;;;;;;;5026811;28;20517;-61
2023/09/01 02:33:04;;;;;;;7.60;2.08;;;;;;;;;;5023806;28;20077;-61
2023/09/01 02:35:33;;;;;;;5.25;2.28;;;;;;;;;;5022314;28;20051;-61
2023/09/01 02:38:01;;;;;;;3.63;2.35;;;;;;;;;;5030351;28;20069;-64
2023/09/01 02:40:30;;;;;;;3.35;2.20;;;;;;;;;;5026015;28;20107;-66
2023/09/01 02:42:58;;;;;;;4.03;2.15;;;;;;;;;;5023685;28;20104;-63
2023/09/01 02:45:26;;;;;;;6.38;2.25;;;;;;;;;;5026201;28;20525;-65
2023/09/01 02:47:56;;;;;;;4.47;2.13;;;;;;;;;;5024004;28;20084;-62
2023/09/01 02:50:25;;;;;;;4.38;1.83;;;;;;;;;;5022204;28;20057;-63
2023/09/01 02:52:54;;;;;;;5.68;2.60;;;;;;;;;;5023820;28;20489;-63
2023/09/01 02:55:22;;;;;;;5.80;2.45;;;;;;;;;;5031533;28;20419;-63
2023/09/01 02:57:50;;;;;;;3.88;2.30;;;;;;;;;;5024105;28;20309;-62
2023/09/01 03:00:21;;;;;;;7.43;2.72;;;;;;;;;;5023463;28;20127;-62
2023/09/01 03:02:50;;;;;;;6.38;2.28;;;;;;;;;;5024039;28;20049;-62
2023/09/01 03:05:20;;;;;;;6.80;2.47;;;;;;;;;;5029358;28;20057;-63
2023/09/01 03:07:49;;;;;;;6.43;2.78;;;;;;;;;;5022845;28;20225;-61
2023/09/01 03:10:17;;;;;;;4.55;2.78;;;;;;;;;;5026379;28;20049;-62
2023/09/01 03:12:45;;;;;;;7.82;2.42;;;;;;;;;;5026744;28;20588;-62
2023/09/01 03:15:15;;;;;;;5.28;2.35;;;;;;;;;;5028965;28;20044;-66
2023/09/01 03:17:43;;;;;;;3.90;2.40;;;;;;;;;;5027549;28;20139;-71
2023/09/01 03:20:12;;;;;;;5.47;2.45;;;;;;;;;;5032312;28;20056;-61
2023/09/01 03:22:42;;;;;;;4.93;2.50;;;;;;;;;;5027167;28;20052;-60
2023/09/01 03:25:10;;;;;;;3.55;2.25;;;;;;;;;;5031834;28;20516;-63
2023/09/01 03:27:39;;;;;;;3.60;2.33;;;;;;;;;;5027085;28;20136;-61
2023/09/01 03:30:08;;;;;;;5.03;2.00;;;;;;;;;;5020337;28;20471;-63
2023/09/01 03:32:36;;;;;;;5.10;2.90;;;;;;;;;;5012082;28;20068;-62
2023/09/01 03:35:05;;;;;;;4.07;2.13;;;;;;;;;;5010588;28;20426;-64
2023/09/01 03:37:33;;;;;;;5.63;2.45;;;;;;;;;;5004406;28;20221;-63
2023/09/01 03:40:07;;;;;;;4.50;2.25;;;;;;;;;;5010340;28;20049;-70
2023/09/01 03:42:36;;;;;;;3.85;2.05;;;;;;;;;;5005205;28;20046;-62
2023/09/01 03:45:04;;;;;;;5.03;2.55;;;;;;;;;;5013971;28;20081;-60
2023/09/01 03:47:33;;;;;;;4.57;2.65;;;;;;;;;;5011610;28;20077;-64
2023/09/01 03:50:01;;;;;;;4.07;1.85;;;;;;;;;;5013615;28;20046;-62
2023/09/01 03:52:30;;;;;;;3.40;2.22;;;;;;;;;;5002720;28;20297;-63
2023/09/01 03:54:58;;;;;;;4.07;2.45;;;;;;;;;;5006022;28;20054;-62
2023/09/01 03:57:28;;;;;;;4.80;2.40;;;;;;;;;;5010521;28;20057;-63
2023/09/01 03:59:56;;;;;;;6.05;2.17;;;;;;;;;;5008431;28;20092;-62
2023/09/01 04:02:24;;;;;;;3.58;2.03;;;;;;;;;;5006111;28;20053;-65
2023/09/01 04:04:53;;;;;;;5.30;2.28;;;;;;;;;;5014646;28;20049;-70
2023/09/01 04:07:21;;;;;;;3.33;2.05;;;;;;;;;;5007476;28;20054;-67
2023/09/01 04:09:50;;;;;;;4.93;2.40;;;;;;;;;;5014340;28;20052;-61
2023/09/01 04:12:18;;;;;;;4.80;2.17;;;;;;;;;;5019227;28;20045;-61
2023/09/01 04:14:48;;;;;;;3.50;1.80;;;;;;;;;;5020528;28;20045;-63
2023/09/01 04:17:16;;;;;;;4.22;2.53;;;;;;;;;;5012465;28;20077;-68
2023/09/01 04:19:47;;;;;;;4.60;2.15;;;;;;;;;;5015983;28;20093;-62
2023/09/01 04:22:16;;;;;;;5.28;2.55;;;;;;;;;;5015752;28;20049;-60
2023/09/01 04:24:45;;;;;;;5.07;2.33;;;;;;;;;;5017123;28;20095;-64
2023/09/01 04:27:13;;;;;;;3.92;2.28;;;;;;;;;;5013219;28;20052;-65
2023/09/01 04:29:42;;;;;;;4.57;2.10;;;;;;;;;;5015372;28;20145;-66
2023/09/01 04:32:20;;;;;;;3.20;1.77;;;;;;;;;;5018812;28;20049;-63
2023/09/01 04:34:49;;;;;;;3.92;2.65;;;;;;;;;;5014593;28;20132;-63
2023/09/01 04:37:17;;;;;;;4.53;2.13;;;;;;;;;;5018678;28;20515;-64
2023/09/01 04:39:46;;;;;;;2.92;1.70;;;;;;;;;;5016509;28;20049;-63
2023/09/01 04:42:14;;;;;;;4.35;2.10;;;;;;;;;;5016764;28;20486;-67
2023/09/01 04:44:42;;;;;;;5.40;2.10;;;;;;;;;;5015891;28;20099;-68
2023/09/01 04:47:11;;;;;;;2.72;1.85;;;;;;;;;;5015902;28;20041;-62
2023/09/01 04:49:40;;;;;;;4.35;2.00;;;;;;;;;;5016544;28;20073;-63
2023/09/01 04:52:09;;;;;;;3.08;2.28;;;;;;;;;;5012876;28;20494;-68
2023/09/01 04:54:37;;;;;;;5.07;2.10;;;;;;;;;;5017721;28;20491;-65
2023/09/01 04:57:05;;;;;;;3.40;2.20;;;;;;;;;;5016816;28;20132;-61
2023/09/01 04:59:34;;;;;;;3.60;1.83;;;;;;;;;;5018701;28;20099;-62
2023/09/01 05:02:02;;;;;;;4.32;1.80;;;;;;;;;;5013758;28;20080;-67
2023/09/01 05:04:31;;;;;;;4.78;2.13;;;;;;;;;;5015632;28;20774;-61
2023/09/01 05:07:00;;;;;;;6.50;2.47;;;;;;;;;;5016867;28;20612;-66
2023/09/01 05:09:29;;;;;;;4.97;2.15;;;;;;;;;;5013820;28;20853;-63
2023/09/01 05:12:00;;;;;;;3.42;1.73;;;;;;;;;;5014092;28;20796;-61
2023/09/01 05:14:28;;;;;;;3.33;1.80;;;;;;;;;;5015973;28;20123;-65
2023/09/01 05:16:57;;;;;;;4.93;1.95;;;;;;;;;;5011644;28;20503;-63
2023/09/01 05:19:25;;;;;;;3.22;1.85;;;;;;;;;;5013991;28;20052;-63
2023/09/01 05:21:54;;;;;;;5.93;2.05;;;;;;;;;;5015184;28;20490;-61
2023/09/01 05:24:24;;;;;;;3.40;2.10;;;;;;;;;;5012793;28;20045;-63
2023/09/01 05:26:52;;;;;;;4.78;1.80;;;;;;;;;;5021971;28;20057;-61
2023/09/01 05:29:20;;;;;;;3.30;1.98;;;;;;;;;;5010661;28;20042;-71
2023/09/01 05:31:49;;;;;;;7.38;2.00;;;;;;;;;;5006196;28;20112;-72
2023/09/01 05:34:17;;;;;;;5.95;2.20;;;;;;;;;;5010683;28;20490;-65
2023/09/01 05:36:45;;;;;;;2.53;1.80;;;;;;;;;;5010768;28;20042;-61
2023/09/01 05:39:14;;;;;;;1.83;1.55;;;;;;;;;;5008771;28;20376;-60
2023/09/01 05:41:43;;;;;;;2.53;2.00;;;;;;;;;;5012661;28;20317;-70
2023/09/01 05:44:12;;;;;;;3.28;1.85;;;;;;;;;;5014886;28;20054;-65
2023/09/01 05:46:40;;;;;;;3.13;2.10;;;;;;;;;;5019513;28;20684;-62
2023/09/01 05:49:09;;;;;;;4.90;1.80;;;;;;;;;;5018338;28;20360;-61
2023/09/01 05:51:37;;;;;;;3.25;2.00;;;;;;;;;;5005837;28;20052;-64
2023/09/01 05:54:05;;;;;;;4.10;2.03;;;;;;;;;;5009462;28;20041;-62
2023/09/01 05:56:34;;;;;;;4.78;2.50;;;;;;;;;;5008637;28;20099;-62
2023/09/01 05:59:04;;;;;;;4.38;2.10;;;;;;;;;;5006943;28;20104;-62
2023/09/01 06:01:35;;;;;;;4.22;2.20;;;;;;;;;;5008647;28;20128;-64
2023/09/01 06:04:04;;;;;;;3.08;2.00;;;;;;;;;;5006628;28;20061;-62
2023/09/01 06:06:33;;;;;;;3.97;2.30;;;;;;;;;;5008984;28;20061;-63
2023/09/01 06:09:01;;;;;;;2.70;1.88;;;;;;;;;;5012853;28;20494;-61
2023/09/01 06:11:30;;;;;;;3.72;1.90;;;;;;;;;;5019993;28;20050;-61
2023/09/01 06:13:58;;;;;;;3.58;1.88;;;;;;;;;;5025084;28;20073;-61
2023/09/01 06:16:28;;;;;;;3.55;1.92;;;;;;;;;;5028379;28;20147;-63
2023/09/01 06:18:57;;;;;;;4.00;2.00;;;;;;;;;;5026998;28;20432;-63
2023/09/01 06:21:25;;;;;;;3.65;2.28;;;;;;;;;;5027689;28;20044;-62
2023/09/01 06:23:54;;;;;;;5.03;2.00;;;;;;;;;;5027987;28;20039;-62
2023/09/01 06:26:22;;;;;;;3.70;1.85;;;;;;;;;;5028344;28;20133;-61
2023/09/01 06:28:51;;;;;;;5.10;1.95;;;;;;;;;;5032052;28;20045;-62
2023/09/01 06:31:19;;;;;;;5.95;2.40;;;;;;;;;;5028356;28;20038;-62
2023/09/01 06:33:49;;;;;;;4.25;1.85;;;;;;;;;;5026559;28;20140;-63
2023/09/01 06:36:19;;;;;;;5.95;1.98;;;;;;;;;;5026063;28;20142;-64
2023/09/01 06:38:47;;;;;;;3.33;2.10;;;;;;;;;;5022317;28;20100;-64
2023/09/01 06:41:16;;;;;;;3.45;1.85;;;;;;;;;;5031486;28;20049;-62
2023/09/01 06:43:44;;;;;;;4.63;2.38;;;;;;;;;;5031008;28;20037;-62
2023/09/01 06:46:14;;;;;;;2.42;1.60;;;;;;;;;;5028959;28;20088;-61
2023/09/01 06:48:43;;;;;;;5.43;1.90;;;;;;;;;;5028120;28;20111;-64
2023/09/01 06:51:13;;;;;;;3.40;1.60;;;;;;;;;;5031044;28;20045;-61
2023/09/01 06:53:41;;;;;;;2.88;1.63;;;;;;;;;;5027749;28;20111;-62
2023/09/01 06:56:09;;;;;;;2.55;1.48;;;;;;;;;;5032942;28;20124;-62
2023/09/01 06:58:38;;;;;;;3.65;1.65;;;;;;;;;;5024643;28;20111;-62
2023/09/01 07:01:11;;;;;;;3.95;1.80;;;;;;;;;;5028370;28;20135;-63
2023/09/01 07:03:39;;;;;;;3.20;1.60;;;;;;;;;;5031315;28;20504;-63
2023/09/01 07:06:08;;;;;;;4.32;1.73;;;;;;;;;;5024639;28;20065;-62
2023/09/01 07:08:37;;;;;;;4.18;2.00;;;;;;;;;;5029454;28;20486;-61
2023/09/01 07:11:09;;;;;;;2.40;1.20;;;;;;;;;;5035436;28;20476;-62
2023/09/01 07:13:37;;;;;;;4.75;1.80;;;;;;;;;;5027309;28;20504;-61
2023/09/01 07:16:06;;;;;;;2.08;1.13;;;;;;;;;;5028974;28;20111;-62
2023/09/01 07:18:35;;;;;;;6.32;1.55;;;;;;;;;;5028907;28;20046;-61
2023/09/01 07:21:03;;;;;;;5.28;1.65;;;;;;;;;;5033865;28;20076;-61
2023/09/01 07:23:31;;;;;;;4.25;1.60;;;;;;;;;;5026209;28;20471;-64
2023/09/01 07:26:01;;;;;;;3.10;1.83;;;;;;;;;;5034554;28;20069;-64
2023/09/01 07:28:29;;;;;;;4.45;1.60;;;;;;;;;;5029301;28;20504;-62
2023/09/01 07:30:58;;;;;;;2.45;1.60;;;;;;;;;;5036944;28;20487;-61
2023/09/01 07:33:28;;;;;;;3.88;1.40;;;;;;;;;;5032104;28;20048;-63
2023/09/01 07:35:56;;;;;;;3.28;1.35;;;;;;;;;;5027823;28;20138;-64
2023/09/01 07:38:25;;;;;;;2.88;1.30;;;;;;;;;;5031132;28;20057;-64
2023/09/01 07:40:53;;;;;;;4.70;1.30;;;;;;;;;;5016257;28;20511;-61
2023/09/01 07:43:23;;;;;;;2.60;1.45;;;;;;;;;;5009425;28;20058;-61
2023/09/01 07:45:51;;;;;;;6.78;1.55;;;;;;;;;;5011266;28;20096;-63
2023/09/01 07:48:19;;;;;;;5.00;1.13;;;;;;;;;;5007021;28;20041;-64
2023/09/01 07:50:50;;;;;;;2.00;1.13;;;;;;;;;;5008313;28;20049;-63
2023/09/01 07:53:18;;;;;;;2.33;1.27;;;;;;;;;;5010889;28;20330;-63
2023/09/01 07:55:47;;;;;;;3.10;1.27;;;;;;;;;;5007326;28;20095;-63
2023/09/01 07:58:15;;;;;;;3.13;1.17;;;;;;;;;;5009584;28;20108;-62
2023/09/01 08:00:45;;;;;;;1.33;1.00;;;;;;;;;;5019969;28;20052;-65
2023/09/01 08:03:14;;;;;;;3.95;1.00;;;;;;;;;;5026088;28;20595;-63
2023/09/01 08:05:43;;;;;;;1.85;1.10;;;;;;;;;;5027110;28;20453;-61
2023/09/01 08:08:13;;;;;;;2.40;0.98;;;;;;;;;;5028204;28;20046;-60
2023/09/01 08:10:42;;;;;;;1.60;0.88;;;;;;;;;;5028938;28;20038;-61
2023/09/01 08:13:10;;;;;;;1.70;1.20;;;;;;;;;;5030837;28;20464;-63
2023/09/01 08:15:39;;;;;;;2.42;1.02;;;;;;;;;;5023863;28;20439;-65
2023/09/01 08:18:09;;;;;;;2.55;1.20;;;;;;;;;;5026171;28;20053;-63
2023/09/01 08:20:37;;;;;;;3.38;1.23;;;;;;;;;;5024999;28;20054;-62
2023/09/01 08:23:06;;;;;;;3.08;1.58;;;;;;;;;;5026940;28;20049;-65
2023/09/01 08:25:34;;;;;;;4.70;2.00;;;;;;;;;;5028071;28;20135;-63
2023/09/01 08:28:03;;;;;;;3.65;1.13;;;;;;;;;;5019678;28;20441;-64
2023/09/01 08:30:31;;;;;;;1.55;0.95;;;;;;;;;;5028024;28;21060;-65
2023/09/01 08:33:04;;;;;;;3.42;1.27;;;;;;;;;;5023714;28;20045;-66
2023/09/01 08:35:34;;;;;;;4.28;1.00;;;;;;;;;;5030087;28;20514;-64
2023/09/01 08:38:03;;;;;;;2.95;1.30;;;;;;;;;;5025368;28;20401;-64
2023/09/01 08:40:32;;;;;;;1.73;1.17;;;;;;;;;;5022607;28;20103;-63
2023/09/01 08:43:01;;;;;;;3.00;1.13;;;;;;;;;;5024640;28;20140;-62
2023/09/01 08:45:31;;;;;;;1.20;1.00;;;;;;;;;;5026465;28;20112;-62
2023/09/01 08:48:01;;;;;;;1.75;0.95;;;;;;;;;;5033946;28;20120;-64
2023/09/01 08:50:30;;;;;;;4.65;1.10;;;;;;;;;;5024441;28;20592;-69
2023/09/01 08:53:02;;;;;;;2.40;1.27;;;;;;;;;;5024014;28;20162;-64
2023/09/01 08:55:32;;;;;;;3.55;1.15;;;;;;;;;;5029890;28;20561;-63
2023/09/01 08:58:00;;;;;;;2.45;1.10;;;;;;;;;;5022026;28;20049;-64
2023/09/01 09:00:28;;;;;;;10.18;1.50;;;;;;;;;;5028511;28;20462;-63
2023/09/01 09:02:57;;;;;;;1.92;1.10;;;;;;;;;;5019070;28;20120;-63
2023/09/01 09:05:34;;;;;;;2.42;1.13;;;;;;;;;;5020283;28;20589;-62
2023/09/01 09:08:05;;;;;;;6.88;1.20;;;;;;;;;;5033702;28;20111;-62
2023/09/01 09:10:34;;;;;;;2.22;1.17;;;;;;;;;;5028167;28;20045;-61
2023/09/01 09:13:03;;;;;;;5.10;1.20;;;;;;;;;;5024797;28;20462;-61
2023/09/01 09:15:33;;;;;;;4.63;0.90;;;;;;;;;;5031382;28;20056;-63
2023/09/01 09:18:01;;;;;;;4.30;1.00;;;;;;;;;;5026397;28;20041;-63
2023/09/01 09:20:37;;;;;;;2.28;1.10;;;;;;;;;;5024101;28;20191;-60
2023/09/01 09:23:07;;;;;;;2.83;1.23;;;;;;;;;;5024592;28;20140;-66
2023/09/01 09:25:36;;;;;;;2.38;1.00;;;;;;;;;;5025463;28;20688;-62
2023/09/01 09:28:12;;;;;;;1.45;0.90;;;;;;;;;;5024238;28;20200;-63
2023/09/01 09:30:50;;;;;;;2.20;0.93;;;;;;;;;;5015104;28;20057;-61
2023/09/01 09:33:26;;;;;;;1.48;0.93;;;;;;;;;;5006414;28;20453;-62
2023/09/01 09:35:55;;;;;;;2.55;0.80;;;;;;;;;;5010421;28;20116;-62
2023/09/01 09:38:25;;;;;;;2.30;1.00;;;;;;;;;;5020196;28;20096;-62
2023/09/01 09:40:57;;;;;;;2.38;1.10;;;;;;;;;;5005391;28;20046;-61
2023/09/01 09:43:26;;;;;;;1.33;0.93;;;;;;;;;;5006621;28;20073;-62
2023/09/01 09:45:55;;;;;;;3.47;1.00;;;;;;;;;;5006094;28;20069;-61
2023/09/01 09:48:23;;;;;;;2.05;1.00;;;;;;;;;;5010937;28;20081;-64
2023/09/01 09:50:53;;;;;;;4.00;1.08;;;;;;;;;;5006691;28;20042;-63
2023/09/01 09:53:22;;;;;;;1.05;0.70;;;;;;;;;;5008498;28;20053;-61
2023/09/01 09:55:52;;;;;;;2.80;0.88;;;;;;;;;;5005692;28;20042;-62
2023/09/01 09:58:22;;;;;;;1.38;0.73;;;;;;;;;;5010435;28;20042;-64
2023/09/01 10:00:51;;;;;;;7.13;0.80;;;;;;;;;;5020311;28;20058;-62
2023/09/01 10:03:21;;;;;;;1.85;1.05;;;;;;;;;;5026641;28;20146;-61
2023/09/01 10:05:51;;;;;;;1.80;0.80;;;;;;;;;;5024025;28;20053;-61
2023/09/01 10:08:20;;;;;;;2.35;0.98;;;;;;;;;;5033615;28;20506;-61
2023/09/01 10:10:50;;;;;;;3.42;0.90;;;;;;;;;;5027714;28;20052;-64
2023/09/01 10:13:23;;;;;;;2.10;0.70;;;;;;;;;;5028726;28;20607;-64
2023/09/01 10:15:51;;;;;;;5.45;1.00;;;;;;;;;;5023003;28;20502;-61
2023/09/01 10:18:20;;;;;;;1.98;1.15;;;;;;;;;;5027913;28;20050;-62
2023/09/01 10:20:49;;;;;;;1.33;0.75;;;;;;;;;;5029585;28;20158;-67
2023/09/01 10:23:17;;;;;;;5.90;0.95;;;;;;;;;;5030552;28;20149;-64
2023/09/01 10:26:00;;;;;;;1.13;0.80;;;;;;;;;;5024435;28;20065;-66
2023/09/01 10:28:30;;;;;;;2.72;0.82;;;;;;;;;;5027316;28;20053;-61
2023/09/01 10:31:19;;;;;;;2.08;0.98;;;;;;;;;;5028863;28;20054;-63
2023/09/01 10:33:47;;;;;;;3.47;0.88;;;;;;;;;;5022689;28;20038;-62
2023/09/01 10:36:18;;;;;;;1.67;0.70;;;;;;;;;;5029068;28;20257;-62
2023/09/01 10:38:46;;;;;;;2.80;1.02;;;;;;;;;;5029178;28;20045;-60
2023/09/01 10:41:35;;;;;;;2.95;1.00;;;;;;;;;;5015927;28;20107;-61
2023/09/01 10:44:06;;;;;;;7.47;1.38;;;;;;;;;;5010159;28;20147;-61
2023/09/01 10:46:34;;;;;;;2.20;0.88;;;;;;;;;;5006781;28;20403;-61
2023/09/01 10:49:05;;;;;;;1.90;0.93;;;;;;;;;;5006976;28;20041;-61
2023/09/01 10:51:37;;;;;;;2.60;0.90;;;;;;;;;;5011617;28;20049;-61
2023/09/01 10:54:20;;;;;;;2.65;0.95;;;;;;;;;;5014012;28;20049;-64
2023/09/01 10:56:57;;;;;;;3.58;0.75;;;;;;;;;;5005790;28;20057;-61
2023/09/01 10:59:30;;;;;;;1.52;0.85;;;;;;;;;;5007985;28;20072;-61
2023/09/01 11:02:17;;;;;;;4.07;0.90;;;;;;;;;;4991653;28;20054;-60
2023/09/01 11:04:46;;;;;;;6.50;1.15;;;;;;;;;;4993608;28;20657;-61
2023/09/01 11:07:15;;;;;;;1.10;0.70;;;;;;;;;;4991670;28;20120;-63
2023/09/01 11:09:47;;;;;;;1.65;1.00;;;;;;;;;;4990936;28;20050;-62
2023/09/01 11:12:16;;;;;;;6.97;0.93;;;;;;;;;;4994886;28;20054;-63
2023/09/01 11:14:59;;;;;;;2.05;0.70;;;;;;;;;;4993259;28;20096;-62
2023/09/01 11:17:49;;;;;;;1.67;0.57;;;;;;;;;;4990842;28;20440;-62
2023/09/01 11:20:21;;;;;;;2.75;0.85;;;;;;;;;;4994762;28;20104;-65
2023/09/01 11:22:49;;;;;;;5.00;1.00;;;;;;;;;;4997974;28;20668;-65
2023/09/01 11:25:19;;;;;;;1.75;0.85;;;;;;;;;;5011804;28;20054;-66
2023/09/01 11:27:48;;;;;;;1.33;0.60;;;;;;;;;;5008651;28;20115;-69
2023/09/01 11:30:19;;;;;;;1.35;0.77;;;;;;;;;;5016019;28;20053;-66
2023/09/01 11:32:48;;;;;;;1.15;0.70;;;;;;;;;;5024014;28;20053;-63
2023/09/01 11:35:24;;;;;;;1.25;0.52;;;;;;;;;;5020986;28;20165;-71
2023/09/01 11:37:53;;;;;;;3.63;0.75;;;;;;;;;;5025173;28;20054;-64
2023/09/01 11:40:23;;;;;;;2.53;0.65;;;;;;;;;;5021667;28;20045;-64
2023/09/01 11:42:51;;;;;;;4.22;0.90;;;;;;;;;;5035443;28;20044;-63
2023/09/01 11:45:21;;;;;;;3.03;1.13;;;;;;;;;;5027571;28;20579;-64
2023/09/01 11:47:53;;;;;;;2.35;0.95;;;;;;;;;;5023456;28;20041;-64
2023/09/01 11:50:22;;;;;;;2.08;0.98;;;;;;;;;;5025029;28;20041;-69
2023/09/01 11:52:54;;;;;;;1.30;0.80;;;;;;;;;;5024009;28;20053;-70
2023/09/01 11:55:38;;;;;;;2.28;0.90;;;;;;;;;;5021232;28;20053;-64
2023/09/01 11:58:07;;;;;;;2.40;1.00;;;;;;;;;;5031227;28;20046;-66
2023/09/01 12:00:38;;;;;;;1.50;0.82;;;;;;;;;;5025212;28;20103;-62
2023/09/01 12:03:07;;;;;;;2.55;0.93;;;;;;;;;;5021612;28;20924;-62
2023/09/01 12:05:37;;;;;;;4.25;1.15;;;;;;;;;;5031944;28;20080;-64
2023/09/01 12:08:06;;;;;;;1.38;0.80;;;;;;;;;;5031198;28;20053;-64
2023/09/01 12:10:34;;;;;;;2.03;0.80;;;;;;;;;;5031457;28;20065;-69
2023/09/01 12:13:07;;;;;;;1.30;0.88;;;;;;;;;;5029058;28;20556;-64
2023/09/01 12:15:51;;;;;;;1.42;0.73;;;;;;;;;;5025044;28;21184;-65
2023/09/01 12:18:33;;;;;;;0.63;0.63;;;;;;;;;;5024872;28;20042;-64
2023/09/01 12:21:02;;;;;;;3.58;0.90;;;;;;;;;;5026245;28;20135;-66
2023/09/01 12:23:30;;;;;;;1.65;0.70;;;;;;;;;;5027489;28;20053;-65
2023/09/01 12:26:01;;;;;;;1.80;0.98;;;;;;;;;;5037532;28;20080;-67
2023/09/01 12:28:30;;;;;;;2.03;0.80;;;;;;;;;;5027625;28;20053;-65
2023/09/01 12:30:59;;;;;;;1.65;0.80;;;;;;;;;;5017775;28;20047;-65
2023/09/01 12:33:27;;;;;;;1.63;0.77;;;;;;;;;;5006583;28;20049;-65
2023/09/01 12:35:57;;;;;;;2.85;0.75;;;;;;;;;;5012511;28;20133;-64
2023/09/01 12:38:26;;;;;;;1.60;0.90;;;;;;;;;;5006365;28;20081;-66
2023/09/01 12:40:54;;;;;;;1.83;0.80;;;;;;;;;;4994914;28;20065;-66
2023/09/01 12:43:23;;;;;;;1.40;0.90;;;;;;;;;;5005545;28;20131;-65
2023/09/01 12:45:52;;;;;;;1.50;0.73;;;;;;;;;;5009304;28;20057;-64
2023/09/01 12:48:20;;;;;;;1.98;0.90;;;;;;;;;;5007114;28;20037;-68
2023/09/01 12:50:50;;;;;;;1.52;0.80;;;;;;;;;;5001598;28;20278;-65
2023/09/01 12:53:19;;;;;;;2.05;0.80;;;;;;;;;;5005451;28;20053;-67
2023/09/01 12:55:49;;;;;;;1.33;0.80;;;;;;;;;;5007660;28;20057;-67
2023/09/01 12:58:18;;;;;;;2.13;0.80;;;;;;;;;;5002256;28;20120;-64
2023/09/01 13:00:46;;;;;;;2.58;0.90;;;;;;;;;;5007460;28;20124;-67
2023/09/01 13:03:17;;;;;;;2.65;1.08;;;;;;;;;;5009978;28;20104;-65
2023/09/01 13:05:49;;;;;;;1.90;0.68;;;;;;;;;;5012330;28;20062;-62
2023/09/01 13:08:19;;;;;;;1.77;0.63;;;;;;;;;;5010138;28;20053;-64
2023/09/01 13:10:47;;;;;;;1.08;0.80;;;;;;;;;;5011299;28;20046;-65
2023/09/01 13:13:16;;;;;;;2.20;0.95;;;;;;;;;;5006897;28;20070;-63
2023/09/01 13:15:47;;;;;;;2.58;1.42;;;;;;;;;;5013155;28;20045;-64
2023/09/01 13:18:19;;;;;;;5.63;1.20;;;;;;;;;;5019306;28;20038;-61
2023/09/01 13:20:47;;;;;;;0.70;0.68;;;;;;;;;;5016229;28;20590;-65
2023/09/01 13:23:16;;;;;;;3.30;0.85;;;;;;;;;;5015500;28;20065;-64
2023/09/01 13:25:46;;;;;;;0.90;0.70;;;;;;;;;;5013360;28;20136;-62
2023/09/01 13:28:15;;;;;;;1.05;0.68;;;;;;;;;;5015161;28;20041;-63
2023/09/01 13:30:44;;;;;;;1.45;0.90;;;;;;;;;;5012206;28;20434;-64
2023/09/01 13:33:13;;;;;;;1.75;0.70;;;;;;;;;;5016053;28;20057;-63
2023/09/01 13:35:43;;;;;;;0.73;0.55;;;;;;;;;;5012500;28;20054;-64
2023/09/01 13:38:11;;;;;;;2.70;0.70;;;;;;;;;;5017720;28;20042;-61
2023/09/01 13:40:39;;;;;;;3.63;0.80;;;;;;;;;;5014169;28;20100;-63
2023/09/01 13:43:09;;;;;;;8.93;1.48;;;;;;;;;;5016572;28;20077;-62
2023/09/01 13:45:37;;;;;;;2.03;0.70;;;;;;;;;;5015011;28;20037;-67
2023/09/01 13:48:06;;;;;;;1.05;0.60;;;;;;;;;;5009814;28;20049;-63
2023/09/01 13:50:35;;;;;;;2.15;0.68;;;;;;;;;;5007601;28;20337;-63
2023/09/01 13:53:03;;;;;;;2.28;0.60;;;;;;;;;;5001764;28;20049;-64
2023/09/01 13:55:31;;;;;;;2.17;1.15;;;;;;;;;;5009099;28;20104;-69
2023/09/01 13:58:00;;;;;;;1.65;0.70;;;;;;;;;;5002789;28;20381;-69
2023/09/01 14:00:30;;;;;;;2.60;1.33;;;;;;;;;;4999070;28;20545;-63
2023/09/01 14:02:58;;;;;;;1.13;0.65;;;;;;;;;;5010415;28;20288;-62
2023/09/01 14:05:26;;;;;;;1.10;0.80;;;;;;;;;;5009604;28;20053;-63
2023/09/01 14:07:55;;;;;;;2.65;1.00;;;;;;;;;;5011707;28;20038;-62
2023/09/01 14:10:23;;;;;;;1.90;0.90;;;;;;;;;;5010993;28;20074;-61
2023/09/01 14:12:52;;;;;;;2.08;0.95;;;;;;;;;;5009710;28;20253;-64
2023/09/01 14:15:20;;;;;;;1.20;0.70;;;;;;;;;;5002292;28;20483;-62
2023/09/01 14:17:50;;;;;;;1.48;0.93;;;;;;;;;;5010008;28;20045;-61
2023/09/01 14:20:18;;;;;;;2.03;0.80;;;;;;;;;;5003459;28;20054;-65
2023/09/01 14:22:47;;;;;;;1.80;0.82;;;;;;;;;;5011677;28;20077;-62
2023/09/01 14:25:15;;;;;;;1.52;0.90;;;;;;;;;;5013357;28;20365;-61
2023/09/01 14:27:43;;;;;;;2.53;0.73;;;;;;;;;;5008049;28;20084;-61
2023/09/01 14:30:12;;;;;;;6.32;1.20;;;;;;;;;;5002151;28;20584;-62
2023/09/01 14:32:41;;;;;;;2.78;0.73;;;;;;;;;;5014408;28;20134;-69
2023/09/01 14:35:10;;;;;;;1.92;0.77;;;;;;;;;;5013608;28;20463;-61
2023/09/01 14:37:38;;;;;;;2.92;0.88;;;;;;;;;;5015323;28;20119;-61
2023/09/01 14:40:08;;;;;;;1.85;0.98;;;;;;;;;;5016866;28;20061;-62
2023/09/01 14:42:36;;;;;;;2.78;0.80;;;;;;;;;;5009407;28;20045;-64
2023/09/01 14:45:05;;;;;;;1.55;0.85;;;;;;;;;;5015033;28;20120;-62
2023/09/01 14:47:34;;;;;;;1.50;0.70;;;;;;;;;;5011818;28;20049;-61
2023/09/01 14:50:02;;;;;;;2.88;0.80;;;;;;;;;;5007738;28;20041;-64
2023/09/01 14:52:32;;;;;;;1.85;0.80;;;;;;;;;;5004712;28;20061;-63
2023/09/01 14:55:01;;;;;;;0.98;0.60;;;;;;;;;;5010939;28;20049;-62
2023/09/01 14:57:29;;;;;;;3.53;0.80;;;;;;;;;;5004430;28;20044;-63